createdAt,value
2022-12-13T00:01:21.933Z,56.17
2022-12-13T00:03:49.643Z,64.83
2022-12-13T00:06:18.607Z,59.93
2022-12-13T00:08:46.269Z,59.33
2022-12-13T00:11:15.206Z,58.03
2022-12-13T00:13:44.051Z,60.00
2022-12-13T00:16:13.746Z,58.13
2022-12-13T00:18:41.472Z,72.53
2022-12-13T00:21:10.903Z,60.60
2022-12-13T00:23:39.905Z,60.60
2022-12-13T00:26:10.890Z,67.23
2022-12-13T00:28:38.621Z,62.00
2022-12-13T00:31:34.265Z,56.43
2022-12-13T00:33:54.744Z,55.33
2022-12-13T00:36:22.533Z,65.43
2022-12-13T00:39:00.506Z,66.53
2022-12-13T00:41:30.827Z,63.93
2022-12-13T00:43:58.651Z,69.90
2022-12-13T00:46:26.764Z,69.10
2022-12-13T00:48:56.949Z,75.57
2022-12-13T00:51:25.482Z,49.37
2022-12-13T00:53:56.110Z,63.30
2022-12-13T00:56:26.423Z,57.07
2022-12-13T00:58:55.240Z,57.97
2022-12-13T01:01:25.240Z,64.40
2022-12-13T01:03:54.707Z,57.57
2022-12-13T01:06:27.286Z,53.67
2022-12-13T01:08:56.304Z,72.33
2022-12-13T01:11:24.018Z,66.50
2022-12-13T01:13:51.639Z,63.47
2022-12-13T01:16:19.652Z,59.20
2022-12-13T01:18:48.259Z,66.57
2022-12-13T01:21:17.755Z,67.80
2022-12-13T01:23:46.314Z,70.10
2022-12-13T01:26:17.916Z,64.33
2022-12-13T01:28:45.587Z,61.03
2022-12-13T01:31:16.085Z,67.93
2022-12-13T01:33:44.157Z,64.43
2022-12-13T01:36:15.908Z,67.10
2022-12-13T01:38:43.599Z,59.10
2022-12-13T01:41:17.475Z,69.27
2022-12-13T01:43:56.822Z,69.27
2022-12-13T01:46:24.548Z,68.33
2022-12-13T01:48:59.159Z,62.23
2022-12-13T01:51:30.690Z,67.00
2022-12-13T01:54:02.486Z,72.93
2022-12-13T01:56:34.775Z,69.57
2022-12-13T01:59:05.924Z,63.97
2022-12-13T02:01:34.142Z,59.67
2022-12-13T02:04:01.788Z,55.90
2022-12-13T02:06:34.833Z,67.93
2022-12-13T02:09:04.047Z,60.20
2022-12-13T02:11:31.900Z,57.67
2022-12-13T02:13:59.498Z,57.63
2022-12-13T02:16:42.831Z,61.83
2022-12-13T02:19:39.135Z,79.27
2022-12-13T02:22:23.442Z,72.23
2022-12-13T02:25:05.613Z,69.00
2022-12-13T02:27:51.317Z,67.47
2022-12-13T02:30:35.684Z,70.23
2022-12-13T02:33:22.132Z,62.80
2022-12-13T02:35:56.546Z,73.83
2022-12-13T02:38:30.685Z,60.77
2022-12-13T02:41:06.320Z,54.90
2022-12-13T02:43:39.000Z,69.43
2022-12-13T02:46:18.076Z,73.97
2022-12-13T02:48:48.087Z,65.97
2022-12-13T02:51:17.471Z,68.90
2022-12-13T02:53:46.319Z,68.30
2022-12-13T02:56:13.991Z,72.17
2022-12-13T02:58:44.359Z,61.20
2022-12-13T03:01:29.457Z,57.73
2022-12-13T03:04:08.516Z,67.83
2022-12-13T03:06:44.650Z,60.40
2022-12-13T03:09:25.458Z,61.50
2022-12-13T03:12:28.320Z,79.13
2022-12-13T03:15:00.868Z,74.23
2022-12-13T03:17:37.222Z,65.03
2022-12-13T03:20:22.568Z,66.30
2022-12-13T03:22:51.053Z,70.63
2022-12-13T03:25:31.318Z,73.80
2022-12-13T03:28:02.496Z,66.50
2022-12-13T03:30:31.418Z,67.03
2022-12-13T03:33:00.811Z,57.70
2022-12-13T03:35:34.858Z,62.67
2022-12-13T03:38:12.512Z,51.87
2022-12-13T03:40:51.225Z,55.73
2022-12-13T03:43:22.280Z,71.60
2022-12-13T03:45:51.193Z,76.03
2022-12-13T03:48:21.652Z,62.50
2022-12-13T03:50:50.844Z,61.90
2022-12-13T03:53:22.389Z,67.40
2022-12-13T03:56:01.493Z,55.97
2022-12-13T03:58:34.673Z,56.70
2022-12-13T04:01:05.039Z,53.80
2022-12-13T04:03:34.046Z,57.83
2022-12-13T04:06:01.644Z,65.63
2022-12-13T04:08:29.302Z,66.40
2022-12-13T04:10:56.979Z,61.17
2022-12-13T04:13:35.439Z,66.67
2022-12-13T04:16:03.896Z,66.10
2022-12-13T04:18:31.524Z,59.53
2022-12-13T04:21:00.489Z,66.33
2022-12-13T04:23:28.075Z,68.70
2022-12-13T04:25:55.673Z,62.03
2022-12-13T04:28:23.406Z,64.27
2022-12-13T04:30:53.616Z,64.73
2022-12-13T04:33:21.777Z,64.73
2022-12-13T04:35:49.680Z,69.00
2022-12-13T04:38:18.809Z,61.57
2022-12-13T04:40:46.440Z,68.40
2022-12-13T04:43:14.152Z,68.23
2022-12-13T04:45:41.962Z,71.63
2022-12-13T04:48:09.752Z,61.17
2022-12-13T04:50:37.938Z,63.00
2022-12-13T04:53:05.660Z,61.43
2022-12-13T04:55:34.615Z,66.40
2022-12-13T04:58:02.269Z,69.70
2022-12-13T05:00:29.887Z,61.90
2022-12-13T05:02:57.539Z,58.30
2022-12-13T05:05:25.180Z,58.97
2022-12-13T05:07:52.817Z,58.00
2022-12-13T05:10:35.849Z,65.97
2022-12-13T05:13:07.637Z,56.67
2022-12-13T05:15:35.951Z,63.17
2022-12-13T05:18:10.533Z,62.63
2022-12-13T05:20:39.098Z,68.03
2022-12-13T05:23:07.011Z,63.93
2022-12-13T05:25:35.082Z,67.33
2022-12-13T05:28:08.833Z,60.10
2022-12-13T05:30:51.611Z,63.57
2022-12-13T05:33:19.352Z,57.13
2022-12-13T05:35:47.272Z,70.53
2022-12-13T05:38:15.054Z,68.40
2022-12-13T05:40:42.844Z,71.43
2022-12-13T05:43:22.068Z,74.90
2022-12-13T05:45:51.979Z,65.87
2022-12-13T05:48:24.530Z,68.83
2022-12-13T05:51:10.503Z,86.07
2022-12-13T05:53:39.572Z,75.37
2022-12-13T05:56:07.982Z,63.30
2022-12-13T05:58:36.372Z,64.03
2022-12-13T06:01:10.471Z,66.07
2022-12-13T06:03:38.750Z,64.47
2022-12-13T06:06:08.571Z,84.10
2022-12-13T06:08:36.857Z,68.97
2022-12-13T06:11:11.045Z,67.93
2022-12-13T06:13:42.813Z,61.93
2022-12-13T06:16:23.831Z,62.23
2022-12-13T06:19:01.014Z,67.67
2022-12-13T06:21:40.820Z,70.70
2022-12-13T06:24:14.317Z,172.40
2022-12-13T06:26:41.910Z,117.17
2022-12-13T06:29:10.365Z,96.00
2022-12-13T06:31:39.444Z,61.47
2022-12-13T06:34:14.617Z,62.13
2022-12-13T06:36:42.672Z,70.33
2022-12-13T06:39:10.322Z,72.60
2022-12-13T06:41:37.990Z,68.40
2022-12-13T06:44:06.226Z,74.33
2022-12-13T06:46:34.028Z,64.40
2022-12-13T06:49:02.988Z,69.53
2022-12-13T06:51:32.943Z,63.33
2022-12-13T06:54:01.460Z,56.90
2022-12-13T06:56:30.205Z,60.80
2022-12-13T06:59:01.498Z,57.07
2022-12-13T07:01:37.266Z,53.67
2022-12-13T07:04:30.356Z,62.97
2022-12-13T07:06:56.678Z,62.70
2022-12-13T07:09:30.503Z,57.93
2022-12-13T07:11:58.164Z,64.70
2022-12-13T07:14:26.065Z,55.57
2022-12-13T07:16:59.451Z,65.97
2022-12-13T07:19:35.570Z,64.60
2022-12-13T07:22:06.160Z,59.77
2022-12-13T07:24:34.943Z,64.63
2022-12-13T07:27:03.088Z,61.67
2022-12-13T07:29:30.727Z,63.67
2022-12-13T07:32:01.299Z,63.73
2022-12-13T07:34:29.782Z,72.00
2022-12-13T07:36:58.860Z,68.40
2022-12-13T07:39:27.019Z,73.67
2022-12-13T07:41:55.894Z,68.80
2022-12-13T07:44:23.559Z,71.03
2022-12-13T07:46:51.209Z,60.00
2022-12-13T07:49:18.933Z,65.37
2022-12-13T07:51:46.606Z,64.60
2022-12-13T07:54:17.606Z,58.80
2022-12-13T07:56:45.887Z,65.93
2022-12-13T07:59:13.967Z,68.87
2022-12-13T08:01:41.760Z,57.90
2022-12-13T08:04:09.455Z,62.73
2022-12-13T08:06:37.835Z,64.97
2022-12-13T08:09:06.160Z,66.53
2022-12-13T08:11:35.431Z,62.23
2022-12-13T08:14:03.051Z,61.67
2022-12-13T08:16:31.952Z,70.60
2022-12-13T08:19:04.328Z,59.27
2022-12-13T08:24:24.932Z,57.37
2022-12-13T08:26:53.887Z,59.30
2022-12-13T08:29:23.461Z,65.77
2022-12-13T08:32:01.955Z,60.47
2022-12-13T08:34:29.930Z,60.47
2022-12-13T08:37:01.626Z,56.20
2022-12-13T08:39:34.654Z,66.37
2022-12-13T08:42:14.836Z,65.70
2022-12-13T08:44:46.210Z,61.47
2022-12-13T08:47:24.578Z,53.37
2022-12-13T08:49:54.926Z,59.77
2022-12-13T08:52:23.688Z,53.40
2022-12-13T08:54:51.812Z,57.03
2022-12-13T08:57:20.790Z,60.00
2022-12-13T08:59:48.398Z,53.73
2022-12-13T09:02:16.820Z,55.73
2022-12-13T09:04:44.789Z,64.53
2022-12-13T09:07:12.415Z,64.40
2022-12-13T09:09:40.038Z,52.70
2022-12-13T09:12:11.048Z,55.93
2022-12-13T09:15:00.867Z,53.40
2022-12-13T09:17:37.217Z,52.97
2022-12-13T09:20:10.150Z,54.20
2022-12-13T09:23:01.689Z,55.37
2022-12-13T09:25:36.491Z,61.80
2022-12-13T09:28:05.680Z,54.57
2022-12-13T09:30:34.724Z,61.23
2022-12-13T09:33:17.982Z,54.00
2022-12-13T09:35:49.976Z,54.73
2022-12-13T09:38:17.739Z,53.63
2022-12-13T09:40:48.283Z,54.83
2022-12-13T09:43:31.625Z,54.50
2022-12-13T09:46:22.106Z,61.00
2022-12-13T09:48:53.159Z,66.77
2022-12-13T09:51:43.878Z,56.03
2022-12-13T09:54:19.536Z,54.03
2022-12-13T09:56:51.067Z,61.33
2022-12-13T09:59:20.179Z,60.50
2022-12-13T10:01:49.395Z,56.33
2022-12-13T10:04:17.585Z,56.20
2022-12-13T10:06:45.442Z,53.37
2022-12-13T10:09:15.120Z,63.90
2022-12-13T10:11:50.765Z,53.33
2022-12-13T10:14:24.567Z,51.30
2022-12-13T10:16:57.793Z,54.30
2022-12-13T10:19:30.462Z,53.27
2022-12-13T10:22:01.316Z,51.00
2022-12-13T10:24:36.963Z,52.77
2022-12-13T10:27:13.550Z,56.43
2022-12-13T10:30:07.588Z,52.20
2022-12-13T10:32:46.672Z,49.87
2022-12-13T10:35:26.159Z,52.63
2022-12-13T10:37:54.598Z,50.63
2022-12-13T10:40:33.628Z,51.47
2022-12-13T10:43:08.959Z,49.30
2022-12-13T10:45:36.634Z,52.57
2022-12-13T10:48:06.207Z,55.70
2022-12-13T10:50:34.017Z,50.67
2022-12-13T10:53:02.147Z,50.40
2022-12-13T10:55:33.043Z,58.63
2022-12-13T10:58:03.006Z,53.80
2022-12-13T11:00:35.047Z,55.37
2022-12-13T11:03:02.839Z,52.97
2022-12-13T11:05:34.184Z,54.17
2022-12-13T11:08:16.749Z,56.43
2022-12-13T11:10:44.567Z,56.33
2022-12-13T11:13:26.205Z,52.20
2022-12-13T11:15:56.847Z,58.47
2022-12-13T11:18:27.488Z,58.20
2022-12-13T11:20:59.787Z,55.17
2022-12-13T11:23:31.079Z,57.30
2022-12-13T11:26:06.190Z,55.17
2022-12-13T11:28:49.524Z,58.53
2022-12-13T11:31:26.890Z,55.10
2022-12-13T11:34:05.291Z,57.67
2022-12-13T11:36:42.785Z,57.10
2022-12-13T11:39:18.586Z,57.00
2022-12-13T11:41:55.362Z,58.20
2022-12-13T11:44:30.730Z,57.83
2022-12-13T11:47:00.998Z,66.37
2022-12-13T11:49:39.215Z,60.37
2022-12-13T11:52:15.275Z,57.10
2022-12-13T11:54:53.717Z,57.00
2022-12-13T11:57:34.363Z,57.47
2022-12-13T12:00:12.881Z,59.57
2022-12-13T12:02:45.588Z,62.43
2022-12-13T12:05:28.290Z,58.10
2022-12-13T12:10:52.351Z,59.53
2022-12-13T12:13:24.585Z,59.90
2022-12-13T12:16:02.916Z,56.73
2022-12-13T12:18:30.866Z,62.37
2022-12-13T12:21:09.168Z,61.63
2022-12-13T12:23:53.513Z,66.03
2022-12-13T12:26:30.325Z,61.90
2022-12-13T12:29:12.443Z,67.80
2022-12-13T12:31:50.696Z,61.60
2022-12-13T12:34:30.151Z,63.50
2022-12-13T12:37:07.291Z,62.07
2022-12-13T12:39:45.255Z,58.37
2022-12-13T12:42:27.603Z,67.03
2022-12-13T12:45:17.445Z,70.67
2022-12-13T12:50:54.732Z,70.93
2022-12-13T12:53:35.073Z,65.70
2022-12-13T12:56:19.598Z,71.13
2022-12-13T12:58:54.132Z,68.30
2022-12-13T13:01:43.519Z,73.63
2022-12-13T13:04:14.038Z,66.40
2022-12-13T13:06:54.703Z,66.40
2022-12-13T13:09:31.093Z,65.73
2022-12-13T13:12:29.558Z,72.90
2022-12-13T13:14:52.620Z,66.43
2022-12-13T13:17:47.730Z,61.53
2022-12-13T13:20:23.201Z,69.53
2022-12-13T13:23:10.497Z,81.07
2022-12-13T13:26:00.245Z,66.90
2022-12-13T13:28:29.051Z,78.27
2022-12-13T13:31:05.305Z,78.37
2022-12-13T13:33:46.524Z,71.90
2022-12-13T13:36:47.574Z,70.73
2022-12-13T13:39:19.199Z,70.37
2022-12-13T13:42:09.037Z,71.03
2022-12-13T13:44:56.944Z,68.70
2022-12-13T13:47:38.894Z,69.93
2022-12-13T13:50:57.637Z,73.63
2022-12-13T13:54:00.599Z,76.07
2022-12-13T13:57:03.219Z,70.80
2022-12-13T14:00:12.004Z,64.93
2022-12-13T14:03:12.649Z,82.53
2022-12-13T14:06:31.952Z,73.23
2022-12-13T14:09:21.620Z,84.80
2022-12-13T14:12:21.096Z,78.03
2022-12-13T14:15:32.920Z,69.87
2022-12-13T14:18:53.475Z,70.77
2022-12-13T14:21:29.724Z,77.83
2022-12-13T14:24:07.448Z,79.80
2022-12-13T14:26:46.462Z,83.27
2022-12-13T14:29:25.114Z,71.73
2022-12-13T14:31:54.371Z,88.50
2022-12-13T14:34:24.971Z,72.60
2022-12-13T14:36:58.459Z,79.63
2022-12-13T14:39:29.351Z,72.13
2022-12-13T14:41:59.380Z,70.87
2022-12-13T14:44:29.230Z,73.83
2022-12-13T14:47:01.135Z,73.60
2022-12-13T14:49:31.986Z,72.00
2022-12-13T14:52:03.904Z,80.97
2022-12-13T14:54:41.119Z,77.47
2022-12-13T14:57:16.844Z,74.80
2022-12-13T14:59:50.139Z,79.60
2022-12-13T15:02:30.796Z,84.20
2022-12-13T15:05:00.780Z,72.10
2022-12-13T15:07:32.386Z,79.33
2022-12-13T15:10:02.906Z,77.40
2022-12-13T15:12:32.126Z,72.83
2022-12-13T15:15:02.431Z,70.17
2022-12-13T15:17:34.970Z,76.57
2022-12-13T15:20:03.600Z,78.00
2022-12-13T15:22:31.227Z,73.63
2022-12-13T15:24:59.296Z,67.70
2022-12-13T15:27:27.899Z,72.63
2022-12-13T15:29:56.117Z,68.50
2022-12-13T15:32:24.380Z,76.43
2022-12-13T15:34:53.479Z,69.97
2022-12-13T15:37:29.123Z,69.07
2022-12-13T15:40:01.816Z,84.20
2022-12-13T15:42:34.303Z,68.33
2022-12-13T15:45:06.143Z,74.00
2022-12-13T15:47:34.251Z,65.83
2022-12-13T15:50:05.999Z,75.40
2022-12-13T15:52:35.802Z,78.97
2022-12-13T15:55:28.411Z,62.37
2022-12-13T15:57:58.633Z,67.23
2022-12-13T16:00:30.375Z,73.63
2022-12-13T16:03:09.695Z,69.83
2022-12-13T16:05:39.971Z,82.20
2022-12-13T16:08:20.925Z,67.60
2022-12-13T16:10:53.118Z,71.33
2022-12-13T16:13:26.706Z,68.73
2022-12-13T16:16:00.344Z,66.53
2022-12-13T16:18:45.803Z,78.90
2022-12-13T16:21:14.229Z,78.47
2022-12-13T16:23:48.088Z,75.83
2022-12-13T16:26:23.445Z,68.43
2022-12-13T16:28:51.034Z,79.07
2022-12-13T16:31:20.977Z,71.10
2022-12-13T16:33:49.106Z,74.77
2022-12-13T16:36:16.937Z,70.10
2022-12-13T16:38:44.591Z,71.37
2022-12-13T16:41:14.675Z,87.37
2022-12-13T16:43:51.812Z,72.63
2022-12-13T16:47:12.819Z,68.97
2022-12-13T16:49:19.196Z,83.23
2022-12-13T16:51:48.847Z,85.57
2022-12-13T16:54:17.271Z,76.10
2022-12-13T16:56:44.915Z,83.03
2022-12-13T16:59:15.835Z,72.87
2022-12-13T17:01:44.168Z,82.43
2022-12-13T17:04:19.224Z,76.67
2022-12-13T17:06:48.801Z,84.07
2022-12-13T17:09:16.718Z,78.37
2022-12-13T17:11:44.402Z,73.23
2022-12-13T17:14:12.055Z,84.83
2022-12-13T17:16:41.048Z,81.10
2022-12-13T17:19:10.643Z,86.07
2022-12-13T17:21:38.289Z,77.83
2022-12-13T17:24:06.317Z,84.60
2022-12-13T17:26:35.108Z,76.90
2022-12-13T17:29:03.032Z,81.23
2022-12-13T17:31:35.393Z,82.87
2022-12-13T17:34:05.346Z,80.00
2022-12-13T17:36:33.180Z,73.30
2022-12-13T17:39:00.746Z,90.27
2022-12-13T17:41:28.343Z,79.97
2022-12-13T17:44:00.286Z,73.33
2022-12-13T17:46:27.981Z,82.20
2022-12-13T17:48:56.097Z,80.80
2022-12-13T17:51:25.035Z,77.00
2022-12-13T17:53:52.734Z,78.40
2022-12-13T17:56:20.429Z,82.10
2022-12-13T17:58:48.079Z,77.53
2022-12-13T18:01:17.737Z,84.50
2022-12-13T18:03:45.876Z,74.90
2022-12-13T18:06:13.528Z,84.63
2022-12-13T18:08:44.330Z,74.67
2022-12-13T18:11:32.281Z,72.50
2022-12-13T18:14:00.618Z,76.83
2022-12-13T18:16:35.917Z,77.17
2022-12-13T18:19:06.520Z,80.27
2022-12-13T18:21:35.311Z,72.53
2022-12-13T18:24:05.180Z,81.47
2022-12-13T18:26:32.772Z,67.43
2022-12-13T18:29:00.478Z,86.17
2022-12-13T18:31:28.423Z,86.33
2022-12-13T18:33:56.815Z,90.07
2022-12-13T18:36:26.349Z,80.30
2022-12-13T18:38:54.260Z,79.47
2022-12-13T18:41:24.597Z,74.50
2022-12-13T18:43:59.788Z,84.70
2022-12-13T18:46:29.108Z,70.57
2022-12-13T18:48:57.766Z,87.00
2022-12-13T18:51:26.024Z,80.03
2022-12-13T18:53:54.667Z,77.93
2022-12-13T18:56:24.459Z,80.03
2022-12-13T18:58:53.404Z,81.67
2022-12-13T19:01:22.787Z,83.50
2022-12-13T19:03:50.893Z,79.07
2022-12-13T19:06:20.984Z,74.13
2022-12-13T19:08:49.614Z,73.80
2022-12-13T19:11:17.288Z,81.00
2022-12-13T19:13:46.421Z,76.73
2022-12-13T19:16:16.661Z,81.17
2022-12-13T19:18:44.571Z,74.10
2022-12-13T19:21:15.763Z,80.97
2022-12-13T19:23:43.405Z,77.70
2022-12-13T19:26:13.937Z,73.50
2022-12-13T19:28:43.124Z,71.97
2022-12-13T19:31:13.865Z,75.00
2022-12-13T19:33:42.235Z,83.97
2022-12-13T19:36:10.923Z,63.50
2022-12-13T19:38:38.994Z,66.27
2022-12-13T19:41:10.553Z,76.83
2022-12-13T19:43:38.604Z,71.27
2022-12-13T19:46:06.768Z,75.07
2022-12-13T19:48:37.631Z,74.47
2022-12-13T19:51:07.341Z,74.50
2022-12-13T19:53:35.519Z,80.10
2022-12-13T19:56:03.556Z,88.47
2022-12-13T19:58:31.168Z,80.80
2022-12-13T20:01:03.216Z,81.43
2022-12-13T20:03:33.144Z,87.10
2022-12-13T20:06:03.401Z,73.53
2022-12-13T20:08:31.039Z,69.07
2022-12-13T20:10:59.961Z,68.23
2022-12-13T20:13:28.536Z,79.20
2022-12-13T20:15:56.631Z,78.13
2022-12-13T20:18:24.641Z,89.53
2022-12-13T20:21:11.228Z,81.50
2022-12-13T20:23:48.589Z,79.97
2022-12-13T20:26:18.877Z,77.07
2022-12-13T20:28:46.621Z,79.97
2022-12-13T20:31:16.480Z,72.50
2022-12-13T20:33:44.141Z,69.97
2022-12-13T20:36:24.340Z,74.67
2022-12-13T20:38:55.836Z,77.47
2022-12-13T20:41:24.831Z,66.53
2022-12-13T20:43:54.013Z,66.90
2022-12-13T20:46:22.540Z,81.07
2022-12-13T20:48:50.947Z,74.73
2022-12-13T20:51:22.770Z,74.67
2022-12-13T20:53:51.466Z,75.10
2022-12-13T20:56:22.887Z,71.00
2022-12-13T20:58:51.961Z,81.63
2022-12-13T21:01:21.507Z,81.23
2022-12-13T21:03:49.430Z,82.40
2022-12-13T21:06:17.053Z,68.80
2022-12-13T21:08:54.411Z,83.73
2022-12-13T21:11:28.695Z,82.60
2022-12-13T21:14:03.639Z,76.43
2022-12-13T21:16:36.861Z,75.83
2022-12-13T21:19:05.374Z,69.63
2022-12-13T21:21:33.292Z,70.83
2022-12-13T21:24:00.932Z,70.33
2022-12-13T21:26:34.981Z,82.90
2022-12-13T21:29:05.594Z,71.47
2022-12-13T21:31:33.352Z,65.77
2022-12-13T21:34:02.862Z,75.73
2022-12-13T21:36:31.917Z,67.70
2022-12-13T21:39:01.267Z,81.70
2022-12-13T21:41:30.539Z,72.13
2022-12-13T21:44:00.186Z,70.30
2022-12-13T21:46:54.758Z,84.23
2022-12-13T21:49:17.462Z,72.03
2022-12-13T21:51:48.114Z,70.90
2022-12-13T21:54:16.470Z,69.97
2022-12-13T21:57:02.086Z,67.67
2022-12-13T21:59:29.698Z,74.00
2022-12-13T22:02:15.485Z,66.27
2022-12-13T22:04:44.569Z,64.80
2022-12-13T22:07:14.586Z,63.93
2022-12-13T22:09:42.511Z,75.50
2022-12-13T22:12:18.814Z,75.63
2022-12-13T22:14:46.661Z,63.20
2022-12-13T22:17:15.018Z,77.73
2022-12-13T22:19:42.704Z,62.03
2022-12-13T22:22:11.025Z,70.63
2022-12-13T22:24:38.780Z,66.10
2022-12-13T22:27:06.364Z,62.97
2022-12-13T22:29:35.319Z,70.33
2022-12-13T22:32:03.064Z,72.10
2022-12-13T22:34:31.593Z,63.87
2022-12-13T22:36:59.357Z,72.80
2022-12-13T22:39:27.115Z,55.90
2022-12-13T22:41:54.694Z,64.40
2022-12-13T22:44:22.397Z,68.50
2022-12-13T22:46:51.372Z,57.33
2022-12-13T22:49:19.215Z,59.13
2022-12-13T22:51:46.909Z,58.80
2022-12-13T22:54:14.855Z,64.83
2022-12-13T22:56:42.519Z,55.40
2022-12-13T22:59:10.112Z,61.40
2022-12-13T23:01:40.508Z,63.53
2022-12-13T23:04:12.198Z,68.53
2022-12-13T23:06:41.014Z,75.87
2022-12-13T23:09:12.345Z,63.50
2022-12-13T23:11:57.925Z,72.87
2022-12-13T23:14:27.923Z,68.10
2022-12-13T23:16:55.742Z,63.90
2022-12-13T23:19:48.768Z,63.20
2022-12-13T23:22:12.441Z,57.33
2022-12-13T23:24:40.025Z,53.43
2022-12-13T23:27:07.768Z,57.70
2022-12-13T23:29:35.434Z,57.17
2022-12-13T23:32:03.022Z,55.73
2022-12-13T23:34:32.292Z,59.70
2022-12-13T23:36:59.939Z,54.23
2022-12-13T23:39:27.891Z,58.60
2022-12-13T23:41:55.492Z,64.50
2022-12-13T23:44:23.273Z,58.67
2022-12-13T23:46:50.880Z,60.97
2022-12-13T23:49:20.309Z,60.60
2022-12-13T23:51:49.237Z,56.10
2022-12-13T23:54:19.456Z,54.70
2022-12-13T23:56:47.624Z,60.57
2022-12-13T23:59:15.454Z,59.23
